Time;durP1;ratioP1;P1;durP2;ratioP2;P2;SDS_P1;SDS_P2;PMS_P1;PMS_P2;Temp;Humidity;BMP_temperature;BMP_pressure;BME280_temperature;BME280_humidity;BME280_pressure;Samples;Min_cycle;Max_cycle;Signal;HPM_P1;HPM_P2
2022/04/01 00:01:19;;;;;;;;;;;;;;;4.27;100.00;99103.81;5091708;28;19931;-81
2022/04/01 00:03:46;;;;;;;;;;;;;;;3.96;100.00;99123.66;5041598;28;19925;-81
2022/04/01 00:06:13;;;;;;;;;;;;;;;4.38;100.00;99114.97;5083610;28;20294;-81
2022/04/01 00:08:40;;;;;;;;;;;;;;;4.22;100.00;99109.72;5061029;28;19931;-81
2022/04/01 00:11:07;;;;;;;;;;;;;;;4.46;100.00;99105.59;5078108;28;20432;-81
2022/04/01 00:13:34;;;;;;;;;;;;;;;4.36;100.00;99109.06;5096693;28;19924;-81
2022/04/01 00:16:01;;;;;;;;;;;;;;;4.50;100.00;99107.19;5058128;28;19928;-81
2022/04/01 00:18:29;;;;;;;;;;;;;;;4.09;100.00;99108.38;5093537;28;20022;-81
2022/04/01 00:20:56;;;;;;;;;;;;;;;4.27;100.00;99112.13;5111578;28;19924;-81
2022/04/01 00:23:23;;;;;;;;;;;;;;;4.20;100.00;99120.34;5078818;28;20299;-81
2022/04/01 00:25:51;;;;;;;;;;;;;;;4.21;100.00;99116.41;5091158;28;19956;-81
2022/04/01 00:28:17;;;;;;;;;;;;;;;4.19;100.00;99117.97;5088714;28;19924;-81
2022/04/01 00:30:45;;;;;;;;;;;;;;;4.16;100.00;99132.56;5077226;28;19925;-81
2022/04/01 00:33:14;;;;;;;;;;;;;;;3.92;100.00;99122.84;5078016;28;20349;-81
2022/04/01 00:35:42;;;;;;;;;;;;;;;3.88;100.00;99124.75;5061436;28;19966;-81
2022/04/01 00:38:09;;;;;;;;;;;;;;;3.74;100.00;99116.31;5094240;28;20023;-81
2022/04/01 00:40:37;;;;;;;;;;;;;;;3.93;100.00;99121.66;5078047;28;19928;-81
2022/04/01 00:43:04;;;;;;;;;;;;;;;3.83;100.00;99122.34;5077807;28;19927;-81
2022/04/01 00:45:31;;;;;;;;;;;;;;;3.77;100.00;99123.03;5077840;28;19924;-81
2022/04/01 00:48:02;;;;;;;;;;;;;;;4.00;100.00;99127.25;5060913;28;19924;-81
2022/04/01 00:50:31;;;;;;;;;;;;;;;3.86;100.00;99113.28;5093904;28;19928;-81
2022/04/01 00:52:59;;;;;;;;;;;;;;;3.73;100.00;99117.47;5077449;28;19924;-81
2022/04/01 00:55:27;;;;;;;;;;;;;;;3.56;100.00;99123.56;5077728;28;19924;-81
2022/04/01 00:57:55;;;;;;;;;;;;;;;3.54;100.00;99123.16;5072613;28;19971;-81
2022/04/01 01:00:25;;;;;;;;;;;;;;;3.69;100.00;99120.22;5074515;28;20017;-81
2022/04/01 01:02:54;;;;;;;;;;;;;;;3.70;100.00;99112.69;5073210;28;19966;-81
2022/04/01 01:05:21;;;;;;;;;;;;;;;3.92;100.00;99111.78;5074357;28;19931;-80
2022/04/01 01:07:48;;;;;;;;;;;;;;;3.85;100.00;99114.44;5073544;28;20019;-80
2022/04/01 01:10:18;;;;;;;;;;;;;;;3.81;100.00;99110.84;5072891;28;19934;-81
2022/04/01 01:12:45;;;;;;;;;;;;;;;3.66;100.00;99111.88;5074548;28;19924;-81
2022/04/01 01:15:14;;;;;;;;;;;;;;;3.73;100.00;99123.78;5057110;28;20413;-80
2022/04/01 01:17:42;;;;;;;;;;;;;;;3.67;100.00;99152.94;5074942;28;19924;-80
2022/04/01 01:20:13;;;;;;;;;;;;;;;3.72;100.00;99122.22;5074493;28;19925;-80
2022/04/01 01:22:41;;;;;;;;;;;;;;;3.85;100.00;99135.78;5090718;28;19924;-80
2022/04/01 01:25:09;;;;;;;;;;;;;;;3.76;100.00;99113.19;5073862;28;19970;-80
2022/04/01 01:27:37;;;;;;;;;;;;;;;3.65;100.00;99119.34;5073323;28;19925;-81
2022/04/01 01:30:05;;;;;;;;;;;;;;;3.49;100.00;99106.91;5040225;28;20024;-80
2022/04/01 01:32:34;;;;;;;;;;;;;;;3.67;100.00;99124.50;5090194;28;19931;-80
2022/04/01 01:35:04;;;;;;;;;;;;;;;3.73;100.00;99126.56;5056983;28;20369;-80
2022/04/01 01:37:31;;;;;;;;;;;;;;;3.79;100.00;99132.53;5040277;28;19928;-80
2022/04/01 01:40:00;;;;;;;;;;;;;;;3.81;100.00;99138.50;5064260;28;20020;-80
2022/04/01 01:42:27;;;;;;;;;;;;;;;3.87;100.00;99128.69;5054954;28;19973;-80
2022/04/01 01:44:55;;;;;;;;;;;;;;;3.90;100.00;99127.94;5041886;28;20019;-81
2022/04/01 01:47:22;;;;;;;;;;;;;;;4.04;100.00;99130.88;5060323;28;19924;-80
2022/04/01 01:55:22;;;;;;;;;;;;;;;3.85;100.00;99142.09;5089969;28;19925;-80
2022/04/01 01:57:50;;;;;;;;;;;;;;;4.16;100.00;99138.91;5056486;28;20010;-80
2022/04/01 02:00:22;;;;;;;;;;;;;;;4.04;100.00;99139.16;5073256;28;19931;-80
2022/04/01 02:02:49;;;;;;;;;;;;;;;4.26;100.00;99138.19;5094500;28;20299;-80
2022/04/01 02:05:17;;;;;;;;;;;;;;;4.17;100.00;99146.00;5076953;28;20321;-80
2022/04/01 02:07:47;;;;;;;;;;;;;;;3.81;100.00;99149.56;5094650;28;19924;-80
2022/04/01 02:10:15;;;;;;;;;;;;;;;3.95;100.00;99141.44;5076397;28;19928;-81
2022/04/01 02:12:43;;;;;;;;;;;;;;;3.91;100.00;99140.56;5059556;28;19924;-80
2022/04/01 02:15:10;;;;;;;;;;;;;;;3.87;100.00;99155.53;5076527;28;19924;-80
2022/04/01 02:17:38;;;;;;;;;;;;;;;3.95;100.00;99158.03;5076409;28;20434;-80
2022/04/01 02:20:09;;;;;;;;;;;;;;;4.01;100.00;99152.94;5076438;28;19924;-80
2022/04/01 02:22:36;;;;;;;;;;;;;;;4.08;100.00;99156.56;5094467;28;20333;-80
2022/04/01 02:25:05;;;;;;;;;;;;;;;4.05;100.00;99151.81;5059405;28;20394;-79
2022/04/01 02:27:32;;;;;;;;;;;;;;;3.87;100.00;99152.78;5059596;28;19932;-80
2022/04/01 02:30:00;;;;;;;;;;;;;;;3.86;100.00;99154.75;5094300;28;20378;-80
2022/04/01 02:32:47;;;;;;;;;;;;;;;3.61;100.00;99154.44;5079212;28;20022;-80
2022/04/01 02:35:34;;;;;;;;;;;;;;;3.86;100.00;99156.72;5042966;28;19935;-80
2022/04/01 02:38:01;;;;;;;;;;;;;;;3.91;100.00;99157.16;5076178;28;19933;-80
2022/04/01 02:40:31;;;;;;;;;;;;;;;4.12;100.00;99162.94;5076035;28;20019;-80
2022/04/01 02:42:59;;;;;;;;;;;;;;;4.04;100.00;99163.25;5076141;28;20025;-80
2022/04/01 02:45:27;;;;;;;;;;;;;;;3.60;100.00;99172.16;5076381;28;19924;-80
2022/04/01 02:47:54;;;;;;;;;;;;;;;3.63;100.00;99173.41;5059570;28;20413;-80
2022/04/01 02:50:23;;;;;;;;;;;;;;;3.72;100.00;99174.72;5059489;28;19990;-80
2022/04/01 02:52:51;;;;;;;;;;;;;;;3.75;100.00;99170.41;5059842;28;19924;-80
2022/04/01 02:55:18;;;;;;;;;;;;;;;3.71;100.00;99158.53;5097299;28;19932;-80
2022/04/01 02:57:47;;;;;;;;;;;;;;;3.87;100.00;99164.63;5079720;28;19940;-80
2022/04/01 03:00:21;;;;;;;;;;;;;;;3.69;100.00;99160.84;5062895;28;19924;-80
2022/04/01 03:02:55;;;;;;;;;;;;;;;3.84;100.00;99172.88;5078372;28;19924;-80
2022/04/01 03:05:22;;;;;;;;;;;;;;;3.84;100.00;99172.88;5079390;28;20405;-80
2022/04/01 03:07:49;;;;;;;;;;;;;;;3.75;100.00;99167.63;5062513;28;19932;-80
2022/04/01 03:10:17;;;;;;;;;;;;;;;3.48;100.00;99166.88;5062536;28;19931;-80
2022/04/01 03:12:45;;;;;;;;;;;;;;;3.45;100.00;99172.38;5079846;28;19924;-80
2022/04/01 03:15:32;;;;;;;;;;;;;;;3.63;100.00;99168.66;5079466;28;19924;-80
2022/04/01 03:18:17;;;;;;;;;;;;;;;3.60;100.00;99160.34;5096975;28;19924;-80
2022/04/01 03:20:45;;;;;;;;;;;;;;;3.48;100.00;99164.13;5062251;28;19974;-80
2022/04/01 03:23:12;;;;;;;;;;;;;;;3.16;100.00;99165.66;5078878;28;19924;-80
2022/04/01 03:25:42;;;;;;;;;;;;;;;2.97;100.00;99165.75;5078966;28;19924;-80
2022/04/01 03:28:15;;;;;;;;;;;;;;;3.12;100.00;99152.97;5079220;28;19974;-80
2022/04/01 03:30:45;;;;;;;;;;;;;;;3.20;100.00;99157.41;5062173;28;19924;-80
2022/04/01 03:33:16;;;;;;;;;;;;;;;3.07;100.00;99167.09;5078884;28;19924;-80
2022/04/01 03:35:46;;;;;;;;;;;;;;;2.90;100.00;99159.31;5078765;28;19997;-80
2022/04/01 03:38:17;;;;;;;;;;;;;;;2.88;100.00;99170.72;5060084;28;19931;-80
2022/04/01 03:40:48;;;;;;;;;;;;;;;2.98;100.00;99169.31;5058453;28;19924;-80
2022/04/01 03:43:16;;;;;;;;;;;;;;;3.23;100.00;99182.31;5058518;28;20001;-80
2022/04/01 03:45:48;;;;;;;;;;;;;;;3.31;100.00;99172.97;5058592;28;19935;-80
2022/04/01 03:48:20;;;;;;;;;;;;;;;3.35;100.00;99178.53;5076152;28;19925;-80
2022/04/01 03:50:56;;;;;;;;;;;;;;;3.25;100.00;99195.75;5058853;28;19961;-80
2022/04/01 03:53:29;;;;;;;;;;;;;;;3.20;100.00;99196.88;5058425;28;19924;-80
2022/04/01 03:56:00;;;;;;;;;;;;;;;3.21;100.00;99187.41;5058977;28;19925;-80
2022/04/01 03:58:47;;;;;;;;;;;;;;;3.21;100.00;99203.19;5061082;28;19924;-80
2022/04/01 04:01:28;;;;;;;;;;;;;;;3.27;100.00;99201.72;5076025;28;19925;-80
2022/04/01 04:03:56;;;;;;;;;;;;;;;3.29;100.00;99199.34;5041778;28;20376;-74
2022/04/01 04:06:24;;;;;;;;;;;;;;;3.42;100.00;99195.22;5073863;28;19989;-78
2022/04/01 04:08:56;;;;;;;;;;;;;;;3.14;100.00;99195.59;5074180;28;19928;-78
2022/04/01 04:11:31;;;;;;;;;;;;;;;3.31;100.00;99199.78;5074919;28;19939;-78
2022/04/01 04:14:20;;;;;;;;;;;;;;;3.23;100.00;99206.38;5095617;28;19924;-78
2022/04/01 04:16:49;;;;;;;;;;;;;;;2.95;100.00;99203.16;5077769;28;20544;-77
2022/04/01 04:19:45;;;;;;;;;;;;;;;3.12;100.00;99202.66;5061164;28;19924;-78
2022/04/01 04:22:13;;;;;;;;;;;;;;;3.22;100.00;99204.78;5060393;28;19930;-78
2022/04/01 04:25:10;;;;;;;;;;;;;;;3.19;100.00;99213.81;5077634;28;19924;-78
2022/04/01 04:27:43;;;;;;;;;;;;;;;3.17;100.00;99221.66;5060903;28;19924;-78
2022/04/01 04:30:12;;;;;;;;;;;;;;;2.99;100.00;99226.09;5061481;28;20019;-78
2022/04/01 04:33:01;;;;;;;;;;;;;;;2.97;100.00;99228.44;5077662;28;20378;-77
2022/04/01 04:35:28;;;;;;;;;;;;;;;3.24;100.00;99232.81;5059214;28;19929;-78
2022/04/01 04:37:57;;;;;;;;;;;;;;;2.97;100.00;99233.97;5077010;28;20056;-78
2022/04/01 04:40:25;;;;;;;;;;;;;;;3.06;100.00;99231.75;5110849;28;19928;-77
2022/04/01 04:43:23;;;;;;;;;;;;;;;3.30;100.00;99236.88;5090941;28;20015;-77
2022/04/01 04:45:56;;;;;;;;;;;;;;;2.96;100.00;99237.88;5077200;28;19923;-77
2022/04/01 04:48:24;;;;;;;;;;;;;;;3.19;100.00;99242.22;5077046;28;19932;-78
2022/04/01 04:50:51;;;;;;;;;;;;;;;3.34;100.00;99237.72;5093649;28;19930;-77
2022/04/01 04:53:20;;;;;;;;;;;;;;;3.06;100.00;99231.75;5076443;28;19924;-78
2022/04/01 04:55:50;;;;;;;;;;;;;;;3.35;100.00;99233.78;5056958;28;19924;-77
2022/04/01 04:58:24;;;;;;;;;;;;;;;3.22;100.00;99241.47;5090402;28;19924;-78
2022/04/01 05:01:00;;;;;;;;;;;;;;;3.33;100.00;99230.59;5072275;28;19932;-78
2022/04/01 05:03:42;;;;;;;;;;;;;;;3.34;100.00;99227.47;5060268;28;20014;-78
2022/04/01 05:06:11;;;;;;;;;;;;;;;3.29;100.00;99240.78;5060402;28;19924;-78
2022/04/01 05:09:07;;;;;;;;;;;;;;;3.25;100.00;99245.47;5046309;28;19924;-78
2022/04/01 05:12:05;;;;;;;;;;;;;;;3.19;100.00;99258.78;5076773;28;20001;-78
2022/04/01 05:15:10;;;;;;;;;;;;;;;3.24;100.00;99246.63;5094738;28;19969;-78
2022/04/01 05:17:53;;;;;;;;;;;;;;;3.23;100.00;99259.63;5076688;28;19946;-77
2022/04/01 05:20:26;;;;;;;;;;;;;;;3.47;100.00;99252.88;5075225;28;19978;-78
2022/04/01 05:23:12;;;;;;;;;;;;;;;3.46;100.00;99252.13;5098837;28;20375;-78
2022/04/01 05:25:44;;;;;;;;;;;;;;;3.22;100.00;99262.78;5090147;28;19925;-77
2022/04/01 05:28:50;;;;;;;;;;;;;;;3.38;100.00;99263.41;4992492;28;19933;-78
2022/04/01 05:31:33;;;;;;;;;;;;;;;3.54;100.00;99264.06;4992726;28;20293;-78
2022/04/01 05:34:07;;;;;;;;;;;;;;;3.46;100.00;99256.84;4990722;28;19925;-77
2022/04/01 05:36:37;;;;;;;;;;;;;;;3.36;100.00;99251.97;4992549;28;20016;-78
2022/04/01 05:39:05;;;;;;;;;;;;;;;3.46;100.00;99260.41;4999383;28;19925;-78
2022/04/01 05:41:34;;;;;;;;;;;;;;;3.59;100.00;99275.59;4995530;28;19925;-78
2022/04/01 05:44:04;;;;;;;;;;;;;;;3.44;100.00;99270.22;4973979;28;20465;-78
2022/04/01 05:46:41;;;;;;;;;;;;;;;3.67;100.00;99282.00;4975801;28;20170;-77
2022/04/01 05:49:12;;;;;;;;;;;;;;;3.58;100.00;99275.97;4959657;28;19933;-77
2022/04/01 05:51:40;;;;;;;;;;;;;;;3.67;100.00;99279.25;4984385;28;19932;-77
2022/04/01 05:54:08;;;;;;;;;;;;;;;3.43;100.00;99279.69;4979405;28;19925;-78
2022/04/01 05:56:37;;;;;;;;;;;;;;;3.57;100.00;99285.44;5011835;28;19925;-77
2022/04/01 05:59:04;;;;;;;;;;;;;;;3.30;100.00;99297.63;4995475;28;20055;-78
2022/04/01 06:01:50;;;;;;;;;;;;;;;3.42;100.00;99294.66;4979286;28;19933;-77
2022/04/01 06:04:34;;;;;;;;;;;;;;;3.45;100.00;99288.41;4990949;28;19978;-78
2022/04/01 06:07:04;;;;;;;;;;;;;;;3.30;100.00;99303.94;5076110;28;19924;-78
2022/04/01 06:09:55;;;;;;;;;;;;;;;3.21;100.00;99295.09;5075110;28;19952;-77
2022/04/01 06:12:55;;;;;;;;;;;;;;;3.34;100.00;99298.47;5052546;28;19947;-77
2022/04/01 06:15:53;;;;;;;;;;;;;;;3.28;100.00;99313.75;5093917;28;19928;-77
2022/04/01 06:18:51;;;;;;;;;;;;;;;3.49;100.00;99305.81;5093586;28;19932;-77
2022/04/01 06:21:22;;;;;;;;;;;;;;;3.60;100.00;99307.56;5109511;28;19924;-78
2022/04/01 06:23:50;;;;;;;;;;;;;;;3.55;100.00;99320.91;5075870;28;19924;-77
2022/04/01 06:26:18;;;;;;;;;;;;;;;3.64;100.00;99315.91;5059587;28;20015;-78
2022/04/01 06:28:52;;;;;;;;;;;;;;;3.52;100.00;99333.50;5060099;28;19928;-78
2022/04/01 06:31:22;;;;;;;;;;;;;;;3.74;100.00;99323.59;5080027;28;20386;-77
2022/04/01 06:34:00;;;;;;;;;;;;;;;3.89;100.00;99319.88;5113049;28;19924;-77
2022/04/01 06:36:35;;;;;;;;;;;;;;;3.68;100.00;99325.06;5079782;28;20377;-78
2022/04/01 06:39:04;;;;;;;;;;;;;;;3.75;100.00;99319.66;5097697;28;19924;-77
2022/04/01 06:41:42;;;;;;;;;;;;;;;3.86;100.00;99328.91;5078595;28;20393;-77
2022/04/01 06:44:33;;;;;;;;;;;;;;;4.20;100.00;99322.25;5069759;28;19925;-78
2022/04/01 06:47:32;;;;;;;;;;;;;;;4.24;100.00;99328.63;5014792;28;20507;-77
2022/04/01 06:49:59;;;;;;;;;;;;;;;4.31;100.00;99330.69;5015211;28;19925;-77
2022/04/01 06:52:45;;;;;;;;;;;;;;;4.20;100.00;99347.16;5021459;28;20351;-77
2022/04/01 06:55:31;;;;;;;;;;;;;;;4.32;100.00;99326.75;5035223;28;20419;-76
2022/04/01 06:58:00;;;;;;;;;;;;;;;4.25;100.00;99327.47;4990093;28;19926;-77
2022/04/01 07:00:31;;;;;;;;;;;;;;;4.25;100.00;99332.19;4979177;28;20372;-77
2022/04/01 07:03:00;;;;;;;;;;;;;;;4.25;100.00;99333.00;4979176;28;20310;-77
2022/04/01 07:05:28;;;;;;;;;;;;;;;4.34;100.00;99346.53;4995119;28;19925;-77
2022/04/01 07:07:56;;;;;;;;;;;;;;;4.68;100.00;99340.66;4995328;28;20317;-77
2022/04/01 07:10:23;;;;;;;;;;;;;;;4.75;100.00;99351.81;4995465;28;20285;-77
2022/04/01 07:12:51;;;;;;;;;;;;;;;5.08;100.00;99349.00;5024947;28;20467;-77
2022/04/01 07:15:18;;;;;;;;;;;;;;;5.01;100.00;99348.91;5014624;28;19960;-78
2022/04/01 07:17:46;;;;;;;;;;;;;;;5.38;100.00;99358.00;5011043;28;19926;-77
2022/04/01 07:20:13;;;;;;;;;;;;;;;5.56;100.00;99350.66;4978750;28;19925;-78
2022/04/01 07:22:48;;;;;;;;;;;;;;;6.65;100.00;99348.56;5024130;28;19994;-86
2022/04/01 07:25:16;;;;;;;;;;;;;;;7.60;100.00;99336.88;5078678;28;19924;-80
2022/04/01 07:27:43;;;;;;;;;;;;;;;8.19;100.00;99336.81;5078666;28;19925;-79
2022/04/01 07:30:12;;;;;;;;;;;;;;;8.06;100.00;99334.84;5096691;28;20347;-79
2022/04/01 07:32:40;;;;;;;;;;;;;;;7.18;100.00;99345.94;5078709;28;20342;-80
2022/04/01 07:35:09;;;;;;;;;;;;;;;7.75;100.00;99350.38;5096020;28;19931;-80
2022/04/01 07:37:36;;;;;;;;;;;;;;;7.12;100.00;99361.41;5067186;28;20417;-80
2022/04/01 07:40:24;;;;;;;;;;;;;;;6.63;100.00;99378.75;5029609;28;20015;-81
2022/04/01 07:42:53;;;;;;;;;;;;;;;6.29;100.00;99374.56;5078409;28;20379;-80
2022/04/01 07:45:21;;;;;;;;;;;;;;;6.22;100.00;99379.28;5078759;28;19930;-80
2022/04/01 07:47:54;;;;;;;;;;;;;;;6.20;100.00;99387.19;5063316;28;20521;-80
2022/04/01 07:50:22;;;;;;;;;;;;;;;5.90;100.00;99400.44;5078211;28;19924;-80
2022/04/01 07:52:49;;;;;;;;;;;;;;;5.64;100.00;99398.63;5097384;28;19924;-82
2022/04/01 07:55:17;;;;;;;;;;;;;;;5.78;100.00;99411.81;5062135;28;19924;-82
2022/04/01 07:57:47;;;;;;;;;;;;;;;5.32;100.00;99412.19;5057251;28;19959;-79
2022/04/01 08:00:15;;;;;;;;;;;;;;;5.51;100.00;99409.19;5080016;28;20026;-75
2022/04/01 08:02:44;;;;;;;;;;;;;;;5.53;100.00;99426.25;5092609;28;19924;-77
2022/04/01 08:05:12;;;;;;;;;;;;;;;5.55;100.00;99412.81;5092302;28;19931;-75
2022/04/01 08:07:39;;;;;;;;;;;;;;;5.54;100.00;99422.28;5091526;28;19930;-76
2022/04/01 08:10:08;;;;;;;;;;;;;;;5.07;100.00;99427.72;5092455;28;19928;-75
2022/04/01 08:12:39;;;;;;;;;;;;;;;5.09;100.00;99428.16;5072302;28;20393;-77
2022/04/01 08:15:07;;;;;;;;;;;;;;;5.08;100.00;99426.56;5054286;28;19934;-75
2022/04/01 08:17:34;;;;;;;;;;;;;;;5.47;100.00;99433.31;5068139;28;20710;-75
2022/04/01 08:20:01;;;;;;;;;;;;;;;5.41;100.00;99425.72;5074020;28;20317;-74
2022/04/01 08:22:29;;;;;;;;;;;;;;;5.42;100.00;99435.66;5073973;28;20291;-79
2022/04/01 08:24:56;;;;;;;;;;;;;;;5.39;100.00;99425.31;5092973;28;19935;-77
2022/04/01 08:27:28;;;;;;;;;;;;;;;5.38;100.00;99430.06;5041171;28;20020;-77
2022/04/01 08:30:12;;;;;;;;;;;;;;;5.46;100.00;99428.97;5092002;28;19931;-76
2022/04/01 08:32:39;;;;;;;;;;;;;;;5.59;100.00;99427.50;5107211;28;19924;-76
2022/04/01 08:35:07;;;;;;;;;;;;;;;5.17;100.00;99435.38;5089114;28;19932;-76
2022/04/01 08:37:35;;;;;;;;;;;;;;;5.27;100.00;99434.69;5089349;28;20486;-80
2022/04/01 08:40:04;;;;;;;;;;;;;;;5.51;100.00;99436.13;5081845;28;20125;-76
2022/04/01 08:42:32;;;;;;;;;;;;;;;5.58;100.00;99445.31;5091648;28;20999;-79
2022/04/01 08:45:03;;;;;;;;;;;;;;;5.70;100.00;99441.44;5092393;28;20023;-79
2022/04/01 08:47:30;;;;;;;;;;;;;;;5.90;100.00;99445.63;5071069;28;19928;-80
2022/04/01 08:49:57;;;;;;;;;;;;;;;6.12;100.00;99441.06;5060075;28;19928;-79
2022/04/01 08:52:24;;;;;;;;;;;;;;;6.19;100.00;99441.91;5095251;28;19924;-82
2022/04/01 08:54:51;;;;;;;;;;;;;;;6.03;100.00;99443.38;5040789;28;20302;-86
2022/04/01 08:57:18;;;;;;;;;;;;;;;6.04;100.00;99450.50;5074592;28;20431;-85
2022/04/01 08:59:46;;;;;;;;;;;;;;;5.87;100.00;99448.38;5057192;28;19944;-84
2022/04/01 09:02:13;;;;;;;;;;;;;;;5.91;100.00;99447.22;5057185;28;19931;-84
2022/04/01 09:04:41;;;;;;;;;;;;;;;5.96;100.00;99444.09;5024040;28;19931;-88
2022/04/01 09:07:11;;;;;;;;;;;;;;;5.91;100.00;99444.44;5058414;28;20329;-85
2022/04/01 09:09:38;;;;;;;;;;;;;;;6.16;100.00;99456.56;5057255;28;20367;-85
2022/04/01 09:12:06;;;;;;;;;;;;;;;6.48;100.00;99454.78;5038940;28;20284;-85
2022/04/01 09:14:34;;;;;;;;;;;;;;;6.41;100.00;99459.47;5073732;28;19925;-85
2022/04/01 09:17:04;;;;;;;;;;;;;;;6.39;100.00;99464.66;5055764;28;20029;-85
2022/04/01 09:19:34;;;;;;;;;;;;;;;6.27;100.00;99467.72;5073543;28;20315;-85
2022/04/01 09:22:15;;;;;;;;;;;;;;;6.30;100.00;99469.72;5072160;28;20287;-84
2022/04/01 09:24:59;;;;;;;;;;;;;;;6.16;100.00;99464.06;5056107;28;20467;-85
2022/04/01 09:27:55;;;;;;;;;;;;;;;5.82;100.00;99455.06;5022194;28;19928;-84
2022/04/01 09:30:30;;;;;;;;;;;;;;;5.83;100.00;99455.88;5031552;28;19924;-85
2022/04/01 09:32:59;;;;;;;;;;;;;;;6.03;100.00;99460.00;5055811;28;19924;-85
2022/04/01 09:35:29;;;;;;;;;;;;;;;6.31;100.00;99451.88;5056043;28;19924;-85
2022/04/01 09:38:15;;;;;;;;;;;;;;;6.06;100.00;99453.69;5039171;28;19968;-85
2022/04/01 09:40:44;;;;;;;;;;;;;;;5.90;100.00;99455.91;5055330;28;19939;-84
2022/04/01 09:43:11;;;;;;;;;;;;;;;6.04;100.00;99456.03;5055572;28;19924;-85
2022/04/01 09:45:39;;;;;;;;;;;;;;;5.74;100.00;99463.69;5071977;28;19925;-84
2022/04/01 09:48:08;;;;;;;;;;;;;;;5.56;100.00;99469.84;5038960;28;19924;-85
2022/04/01 09:50:36;;;;;;;;;;;;;;;5.90;100.00;99467.81;5038839;28;19931;-84
2022/04/01 09:53:11;;;;;;;;;;;;;;;6.25;100.00;99467.31;5038876;28;19925;-84
2022/04/01 09:55:39;;;;;;;;;;;;;;;6.67;100.00;99465.63;5021946;28;20011;-86
2022/04/01 09:58:08;;;;;;;;;;;;;;;6.54;100.00;99466.34;5038874;28;20067;-86
2022/04/01 10:00:37;;;;;;;;;;;;;;;6.88;100.00;99451.03;5039187;28;19925;-86
2022/04/01 10:03:05;;;;;;;;;;;;;;;7.09;100.00;99456.69;5072383;28;19931;-84
2022/04/01 10:05:34;;;;;;;;;;;;;;;7.08;100.00;99444.00;5038770;28;19931;-86
2022/04/01 10:08:02;;;;;;;;;;;;;;;6.93;100.00;99448.69;5071980;28;19932;-86
2022/04/01 10:10:30;;;;;;;;;;;;;;;7.08;100.00;99444.78;5054939;28;19934;-86
2022/04/01 10:13:03;;;;;;;;;;;;;;;6.84;100.00;99445.47;5038653;28;19935;-86
2022/04/01 10:15:31;;;;;;;;;;;;;;;6.89;100.00;99445.09;5071756;28;19925;-86
2022/04/01 10:18:01;;;;;;;;;;;;;;;6.70;100.00;99445.41;5073060;28;20310;-86
2022/04/01 10:20:33;;;;;;;;;;;;;;;6.45;100.00;99446.44;5072977;28;19951;-86
2022/04/01 10:23:03;;;;;;;;;;;;;;;6.45;100.00;99446.44;5038507;28;20083;-86
2022/04/01 10:26:02;;;;;;;;;;;;;;;7.26;100.00;99447.63;5038537;28;20015;-86
2022/04/01 10:28:30;;;;;;;;;;;;;;;7.07;100.00;99465.41;5014180;28;20037;-87
2022/04/01 10:30:58;;;;;;;;;;;;;;;7.35;100.00;99448.84;5038519;28;19924;-86
2022/04/01 10:33:27;;;;;;;;;;;;;;;7.51;100.00;99451.28;5038444;28;19925;-87
2022/04/01 10:35:55;;;;;;;;;;;;;;;7.34;100.00;99447.28;5038204;28;19968;-86
2022/04/01 10:38:27;;;;;;;;;;;;;;;7.46;100.00;99454.44;5054706;28;20023;-86
2022/04/01 10:41:05;;;;;;;;;;;;;;;7.57;100.00;99433.03;5038275;28;19932;-86
2022/04/01 10:43:37;;;;;;;;;;;;;;;7.13;100.00;99440.84;5038622;28;20456;-86
2022/04/01 10:46:08;;;;;;;;;;;;;;;7.02;100.00;99445.56;5038650;28;19925;-85
2022/04/01 10:51:36;;;;;;;;;;;;;;;7.45;100.00;99430.63;5071423;28;19924;-86
2022/04/01 10:54:23;;;;;;;;;;;;;;;8.30;100.00;99429.47;5054628;28;19931;-86
2022/04/01 10:57:05;;;;;;;;;;;;;;;7.79;100.00;99436.59;5038075;28;19925;-84
2022/04/01 10:59:45;;;;;;;;;;;;;;;7.52;100.00;99438.97;5054841;28;20019;-85
2022/04/01 11:02:19;;;;;;;;;;;;;;;8.10;100.00;99422.72;5054879;28;20319;-85
2022/04/01 11:04:52;;;;;;;;;;;;;;;8.65;100.00;99437.78;5055027;28;19931;-86
2022/04/01 11:07:22;;;;;;;;;;;;;;;8.97;100.00;99434.88;5054406;28;19925;-85
2022/04/01 11:09:50;;;;;;;;;;;;;;;9.10;100.00;99436.81;5088036;28;19953;-86
2022/04/01 11:12:18;;;;;;;;;;;;;;;9.28;100.00;99444.31;5054480;28;19929;-86
2022/04/01 11:17:35;;;;;;;;;;;;;;;8.20;100.00;99438.63;5025632;28;20375;-85
2022/04/01 11:20:06;;;;;;;;;;;;;;;8.14;100.00;99437.41;5041554;28;20380;-86
2022/04/01 11:22:36;;;;;;;;;;;;;;;8.07;100.00;99437.44;5024681;28;19931;-86
2022/04/01 11:25:03;;;;;;;;;;;;;;;7.82;100.00;99439.41;5091520;28;20276;-86
2022/04/01 11:27:31;;;;;;;;;;;;;;;8.14;100.00;99425.47;5058150;28;19925;-86
2022/04/01 11:30:28;;;;;;;;;;;;;;;8.09;100.00;99423.91;5074309;28;19935;-86
2022/04/01 11:32:57;;;;;;;;;;;;;;;8.34;100.00;99433.06;5049699;28;20015;-86
2022/04/01 11:35:26;;;;;;;;;;;;;;;8.52;100.00;99424.69;5041493;28;19925;-86
2022/04/01 11:37:54;;;;;;;;;;;;;;;8.72;100.00;99418.25;5041121;28;19924;-86
2022/04/01 11:40:31;;;;;;;;;;;;;;;8.80;100.00;99417.03;5057868;28;19931;-86
2022/04/01 11:43:03;;;;;;;;;;;;;;;8.58;100.00;99418.31;5041066;28;19939;-86
2022/04/01 11:45:34;;;;;;;;;;;;;;;8.43;100.00;99429.88;5041012;28;19924;-86
2022/04/01 11:48:19;;;;;;;;;;;;;;;8.49;100.00;99428.25;5075615;28;20290;-86
2022/04/01 11:50:49;;;;;;;;;;;;;;;8.45;100.00;99428.25;5093185;28;20322;-85
2022/04/01 11:53:24;;;;;;;;;;;;;;;8.82;100.00;99414.66;5093893;28;19997;-86
2022/04/01 11:55:53;;;;;;;;;;;;;;;9.03;100.00;99411.78;5094106;28;20034;-86
2022/04/01 11:58:21;;;;;;;;;;;;;;;8.77;100.00;99417.84;5044567;28;19924;-85
2022/04/01 12:00:48;;;;;;;;;;;;;;;8.35;100.00;99409.59;5094345;28;19947;-86
2022/04/01 12:03:18;;;;;;;;;;;;;;;8.26;100.00;99419.53;5077265;28;19931;-85
2022/04/01 12:05:46;;;;;;;;;;;;;;;8.43;100.00;99408.38;5093915;28;19924;-86
2022/04/01 12:11:00;;;;;;;;;;;;;;;8.51;100.00;99387.66;5094172;28;20074;-86
2022/04/01 12:13:28;;;;;;;;;;;;;;;9.22;100.00;99376.22;5075240;28;19924;-86
2022/04/01 12:15:57;;;;;;;;;;;;;;;8.43;100.00;99380.53;5073530;28;19928;-91
2022/04/01 12:18:29;;;;;;;;;;;;;;;9.10;100.00;99381.06;5044043;28;19928;-88
2022/04/01 12:20:57;;;;;;;;;;;;;;;8.95;100.00;99381.56;5094682;28;20065;-87
2022/04/01 12:23:26;;;;;;;;;;;;;;;8.99;100.00;99397.06;5058143;28;19932;-87
2022/04/01 12:25:54;;;;;;;;;;;;;;;9.43;100.00;99392.84;5044593;28;19932;-84
2022/04/01 12:28:26;;;;;;;;;;;;;;;9.37;100.00;99394.47;5095352;28;20279;-83
2022/04/01 12:30:55;;;;;;;;;;;;;;;9.03;100.00;99403.41;5077836;28;20049;-86
2022/04/01 12:33:27;;;;;;;;;;;;;;;9.24;100.00;99398.94;5053463;28;19931;-84
2022/04/01 12:35:59;;;;;;;;;;;;;;;9.61;100.00;99410.25;5073073;28;19924;-85
2022/04/01 12:38:28;;;;;;;;;;;;;;;9.99;100.00;99387.66;5041099;28;19925;-84
2022/04/01 12:40:59;;;;;;;;;;;;;;;9.58;100.00;99395.13;5075304;28;19928;-84
2022/04/01 12:43:36;;;;;;;;;;;;;;;9.37;100.00;99397.25;5090688;28;19924;-85
2022/04/01 12:46:05;;;;;;;;;;;;;;;9.35;100.00;99408.00;5057629;28;19924;-84
2022/04/01 12:48:41;;;;;;;;;;;;;;;8.45;100.00;99405.97;5090518;28;19931;-85
2022/04/01 12:51:08;;;;;;;;;;;;;;;8.29;100.00;99402.03;5057396;28;19924;-86
2022/04/01 12:53:36;;;;;;;;;;;;;;;9.00;100.00;99403.41;5057730;28;19925;-86
2022/04/01 12:56:17;;;;;;;;;;;;;;;8.85;100.00;99401.88;5041514;28;19928;-86
2022/04/01 12:58:50;;;;;;;;;;;;;;;9.16;100.00;99396.16;5057435;28;19966;-85
2022/04/01 13:01:25;;;;;;;;;;;;;;;9.13;100.00;99396.97;5040816;28;19930;-86
2022/04/01 13:03:52;;;;;;;;;;;;;;;9.27;100.00;99392.53;5040032;28;19924;-85
2022/04/01 13:06:23;;;;;;;;;;;;;;;9.37;100.00;99394.47;5072589;28;20053;-86
2022/04/01 13:08:56;;;;;;;;;;;;;;;8.82;100.00;99386.78;5049278;28;19925;-86
2022/04/01 13:11:33;;;;;;;;;;;;;;;8.70;100.00;99397.56;5087217;28;19930;-85
2022/04/01 13:14:00;;;;;;;;;;;;;;;9.02;100.00;99390.69;5095880;28;19924;-86
2022/04/01 13:16:37;;;;;;;;;;;;;;;9.24;100.00;99385.00;5053231;28;20014;-82
2022/04/01 13:19:43;;;;;;;;;;;;;;;9.09;100.00;99390.63;5074894;28;19924;-84
2022/04/01 13:22:10;;;;;;;;;;;;;;;9.09;100.00;99384.25;4993225;28;19925;-82
2022/04/01 13:24:38;;;;;;;;;;;;;;;9.49;100.00;99399.56;4993199;28;19933;-83
2022/04/01 13:27:08;;;;;;;;;;;;;;;8.29;100.00;99391.72;4960845;28;19940;-87